Time;durP1;ratioP1;P1;durP2;ratioP2;P2;SDS_P1;SDS_P2;PMS_P1;PMS_P2;Temp;Humidity;BMP_temperature;BMP_pressure;BME280_temperature;BME280_humidity;BME280_pressure;Samples;Min_cycle;Max_cycle;Signal;HPM_P1;HPM_P2
2022/08/14 00:00:50;;;;;;;4.55;3.55;;;;;;;23.56;58.85;101303.81;4983860;28;20113;-62
2022/08/14 00:03:19;;;;;;;6.47;3.17;;;;;;;23.45;59.37;101298.47;4984399;28;20496;-62
2022/08/14 00:05:44;;;;;;;;;;;;;;;23.41;60.08;101297.84;4983998;28;20039;-63
2022/08/14 00:08:09;;;;;;;10.77;3.47;;;;;;;23.40;60.34;101292.59;4984452;28;19916;-62
2022/08/14 00:10:34;;;;;;;3.92;3.47;;;;;;;23.37;60.53;101284.78;4984682;28;20277;-62
2022/08/14 00:13:00;;;;;;;6.75;3.28;;;;;;;23.33;60.67;101285.00;4985448;28;20054;-64
2022/08/14 00:15:29;;;;;;;5.32;3.10;;;;;;;23.31;60.77;101278.91;4984334;28;20018;-63
2022/08/14 00:17:54;;;;;;;;;;;;;;;23.30;61.03;101284.41;4985603;28;20065;-63
2022/08/14 00:20:26;;;;;;;3.97;3.58;;;;;;;23.27;60.75;101274.72;4984464;28;19949;-62
2022/08/14 00:22:52;;;;;;;5.40;3.40;;;;;;;23.20;61.18;101277.09;4985476;28;20524;-62
2022/08/14 00:25:18;;;;;;;5.25;3.70;;;;;;;23.16;61.23;101270.25;4984033;28;20032;-63
2022/08/14 00:27:43;;;;;;;5.28;3.28;;;;;;;23.15;61.39;101275.75;4984314;28;20026;-63
2022/08/14 00:30:10;;;;;;;7.15;3.22;;;;;;;23.11;61.28;101272.44;4982742;28;20031;-63
2022/08/14 00:32:36;;;;;;;5.00;3.20;;;;;;;23.13;61.23;101270.50;4984912;28;20592;-64
2022/08/14 00:35:04;;;;;;;6.47;3.70;;;;;;;23.13;61.10;101270.50;4985008;28;20121;-62
2022/08/14 00:37:30;;;;;;;6.15;3.20;;;;;;;23.16;61.29;101267.56;4984656;28;20022;-64
2022/08/14 00:39:56;;;;;;;5.22;3.63;;;;;;;23.11;61.34;101264.38;4984817;28;20061;-64
2022/08/14 00:42:22;;;;;;;10.50;3.95;;;;;;;23.17;60.85;101261.19;4983498;28;20057;-63
2022/08/14 00:44:48;;;;;;;4.53;3.40;;;;;;;23.11;60.77;101267.06;4983791;28;20030;-62
2022/08/14 00:47:15;;;;;;;7.15;3.90;;;;;;;23.09;61.25;101261.00;4984025;28;20031;-63
2022/08/14 00:49:42;;;;;;;6.13;3.50;;;;;;;23.10;61.28;101260.00;4982967;28;20035;-64
2022/08/14 00:52:10;;;;;;;6.80;4.20;;;;;;;23.05;61.57;101259.50;4984552;28;20061;-63
2022/08/14 00:54:39;;;;;;;7.00;4.10;;;;;;;23.02;62.09;101249.88;4984587;28;20054;-62
2022/08/14 00:57:04;;;;;;;6.35;4.50;;;;;;;23.04;62.38;101255.97;4984874;28;20019;-64
2022/08/14 00:59:30;;;;;;;6.95;4.25;;;;;;;23.05;61.97;101248.75;4984383;28;20106;-64
2022/08/14 01:01:59;;;;;;;6.53;4.43;;;;;;;23.01;62.31;101252.66;4984710;28;20658;-62
2022/08/14 01:04:25;;;;;;;6.20;3.90;;;;;;;22.97;62.64;101252.09;4983110;28;20149;-64
2022/08/14 01:06:51;;;;;;;7.03;4.10;;;;;;;22.97;62.14;101252.91;4984624;28;20030;-61
2022/08/14 01:09:21;;;;;;;4.53;4.13;;;;;;;22.92;62.24;101239.03;4983119;28;20034;-63
2022/08/14 01:11:48;;;;;;;6.47;4.55;;;;;;;22.97;61.78;101231.41;4983732;28;20030;-63
2022/08/14 01:14:15;;;;;;;6.35;4.43;;;;;;;22.96;61.59;101224.34;4982088;28;20030;-63
2022/08/14 01:16:40;;;;;;;7.22;4.70;;;;;;;22.88;61.66;101225.94;4982685;28;20027;-64
2022/08/14 01:21:50;;;;;;;6.53;4.57;;;;;;;22.83;61.63;101224.50;4984281;28;20041;-62
2022/08/14 01:24:15;;;;;;;6.47;4.88;;;;;;;22.78;61.93;101223.16;4984795;28;20506;-62
2022/08/14 01:26:42;;;;;;;6.20;4.05;;;;;;;22.82;61.19;101216.56;4984294;28;20030;-63
2022/08/14 01:29:07;;;;;;;5.45;4.10;;;;;;;22.77;61.36;101210.69;4984463;28;20027;-62
2022/08/14 01:31:41;;;;;;;4.60;4.20;;;;;;;22.76;61.34;101214.38;4982561;28;20122;-62
2022/08/14 01:34:08;;;;;;;8.65;4.53;;;;;;;22.70;61.21;101208.50;4984118;28;20028;-63
2022/08/14 01:36:37;;;;;;;4.85;4.30;;;;;;;22.66;61.28;101212.41;4984166;28;20037;-63
2022/08/14 01:39:06;;;;;;;;;;;;;;;22.57;61.87;101214.00;4987675;28;20061;-63
2022/08/14 01:41:33;;;;;;;6.00;4.30;;;;;;;22.61;61.79;101208.38;4987694;28;19913;-63
2022/08/14 01:44:00;;;;;;;5.85;4.50;;;;;;;22.60;61.76;101204.84;4985494;28;20122;-62
2022/08/14 01:46:28;;;;;;;6.38;4.05;;;;;;;22.53;62.35;101200.91;4986512;28;20030;-62
2022/08/14 01:48:55;;;;;;;5.57;4.60;;;;;;;22.55;62.76;101196.28;4986765;28;20145;-61
2022/08/14 01:51:23;;;;;;;6.72;5.10;;;;;;;22.43;62.90;101193.56;4987908;28;20703;-63
2022/08/14 01:53:54;;;;;;;4.82;4.43;;;;;;;22.40;62.89;101192.97;4987759;28;20026;-62
2022/08/14 01:56:21;;;;;;;8.48;4.60;;;;;;;22.37;63.22;101199.44;4987812;28;20215;-62
2022/08/14 01:58:48;;;;;;;6.72;4.72;;;;;;;22.31;63.45;101200.75;4987567;28;20026;-63
2022/08/14 02:01:20;;;;;;;5.75;5.25;;;;;;;22.25;64.04;101195.91;4987090;28;20034;-64
2022/08/14 02:03:46;;;;;;;10.48;5.35;;;;;;;22.18;64.07;101198.19;4985882;28;20061;-64
2022/08/14 02:06:12;;;;;;;8.18;5.10;;;;;;;22.15;64.12;101193.06;4986295;28;20034;-62
2022/08/14 02:08:39;;;;;;;10.40;5.20;;;;;;;22.09;64.68;101198.91;4986822;28;20109;-63
2022/08/14 02:11:16;;;;;;;11.80;5.60;;;;;;;22.03;64.86;101188.66;4984425;28;20654;-62
2022/08/14 02:13:42;;;;;;;5.22;4.57;;;;;;;22.02;64.24;101187.81;4987223;28;20038;-63
2022/08/14 02:16:09;;;;;;;7.43;4.63;;;;;;;21.95;65.26;101187.41;4985121;28;20671;-62
2022/08/14 02:18:34;;;;;;;8.07;4.85;;;;;;;22.00;64.73;101184.38;4987126;28;20440;-63
2022/08/14 02:21:02;;;;;;;7.40;5.38;;;;;;;21.95;64.88;101184.72;4987034;28;20038;-62
2022/08/14 02:23:27;;;;;;;7.60;5.32;;;;;;;21.91;65.15;101180.56;4986828;28;20034;-63
2022/08/14 02:25:53;;;;;;;5.63;5.05;;;;;;;21.87;65.12;101179.09;4986807;28;20033;-62
2022/08/14 02:28:18;;;;;;;5.13;4.50;;;;;;;21.81;65.35;101179.56;4986608;28;20118;-63
2022/08/14 02:30:44;;;;;;;9.70;4.63;;;;;;;21.80;65.05;101175.19;4985680;28;20101;-63
2022/08/14 02:33:10;;;;;;;7.47;5.20;;;;;;;21.75;65.43;101174.66;4985422;28;20022;-62
2022/08/14 02:35:39;;;;;;;5.03;4.60;;;;;;;21.70;65.69;101177.69;4986760;28;20379;-62
2022/08/14 02:38:05;;;;;;;6.43;4.65;;;;;;;21.73;65.24;101171.25;4986947;28;20026;-63
2022/08/14 02:40:31;;;;;;;6.65;5.30;;;;;;;21.68;65.92;101166.22;4986529;28;20032;-63
2022/08/14 02:42:57;;;;;;;7.00;5.28;;;;;;;21.67;65.68;101164.53;4986780;28;20130;-63
2022/08/14 02:45:23;;;;;;;6.55;5.22;;;;;;;21.66;65.51;101160.97;4986542;28;20018;-62
2022/08/14 02:47:49;;;;;;;7.45;5.22;;;;;;;21.63;65.54;101160.34;4984593;28;20038;-62
2022/08/14 02:50:15;;;;;;;5.53;5.00;;;;;;;21.62;65.71;101164.88;4986426;28;20478;-62
2022/08/14 02:52:40;;;;;;;6.20;5.10;;;;;;;21.58;66.05;101164.25;4984756;28;20027;-62
2022/08/14 02:55:06;;;;;;;5.78;5.00;;;;;;;21.58;66.46;101155.34;4986499;28;20023;-62
2022/08/14 02:57:31;;;;;;;5.53;5.03;;;;;;;21.57;65.88;101154.50;4984690;28;20076;-62
2022/08/14 02:59:57;;;;;;;15.35;5.35;;;;;;;21.56;66.17;101152.78;4985259;28;20031;-63
2022/08/14 03:02:23;;;;;;;7.20;5.85;;;;;;;21.61;65.94;101156.94;4984684;28;20054;-63
2022/08/14 03:04:48;;;;;;;10.00;5.65;;;;;;;21.56;66.33;101157.28;4983794;28;21458;-63
2022/08/14 03:07:15;;;;;;;7.22;5.40;;;;;;;21.46;66.48;101144.59;4984205;28;20046;-63
2022/08/14 03:09:41;;;;;;;7.43;5.43;;;;;;;21.52;65.93;101142.41;4985561;28;20062;-64
2022/08/14 03:12:07;;;;;;;6.18;5.10;;;;;;;21.51;65.86;101141.56;4985415;28;20065;-63
2022/08/14 03:14:38;;;;;;;6.90;5.53;;;;;;;21.55;66.02;101142.19;4983584;28;20452;-63
2022/08/14 03:17:05;;;;;;;6.05;5.13;;;;;;;21.51;65.93;101141.56;4985843;28;20624;-63
2022/08/14 03:19:30;;;;;;;8.75;5.75;;;;;;;21.44;66.40;101149.22;4985988;28;20503;-62
2022/08/14 03:21:56;;;;;;;6.68;5.50;;;;;;;21.45;66.42;101142.88;4986094;28;20023;-63
2022/08/14 03:24:21;;;;;;;5.70;5.05;;;;;;;21.36;66.20;101135.53;4986612;28;20044;-63
2022/08/14 03:26:48;;;;;;;9.65;5.00;;;;;;;21.30;66.45;101139.53;4986104;28;20734;-63
2022/08/14 03:29:19;;;;;;;8.80;4.95;;;;;;;21.33;67.15;101128.59;4983819;28;20038;-63
2022/08/14 03:31:45;;;;;;;7.90;5.53;;;;;;;21.39;66.21;101134.44;4985579;28;20037;-63
2022/08/14 03:34:11;;;;;;;8.98;5.65;;;;;;;21.39;66.57;101135.28;4984321;28;20110;-62
2022/08/14 03:36:39;;;;;;;7.43;5.80;;;;;;;21.37;66.80;101133.72;4984967;28;20129;-63
2022/08/14 03:39:06;;;;;;;7.15;5.82;;;;;;;21.29;66.46;101128.94;4984217;28;20032;-63
2022/08/14 03:41:34;;;;;;;7.85;6.05;;;;;;;21.23;67.13;101124.03;4985847;28;20117;-63
2022/08/14 03:44:02;;;;;;;7.88;5.70;;;;;;;21.23;66.93;101124.88;4985623;28;20036;-63
2022/08/14 03:46:31;;;;;;;7.13;5.90;;;;;;;21.26;66.91;101126.47;4985077;28;20366;-63
2022/08/14 03:48:56;;;;;;;6.25;5.75;;;;;;;21.29;67.19;101140.50;4985734;28;20046;-63
2022/08/14 03:51:27;;;;;;;9.30;6.15;;;;;;;21.32;67.31;101126.00;4984337;28;20030;-63
2022/08/14 03:53:54;;;;;;;7.68;6.25;;;;;;;21.31;67.07;101129.69;4966289;28;20506;-63
2022/08/14 03:56:19;;;;;;;8.73;6.38;;;;;;;21.31;67.43;101127.81;4964903;28;20117;-62
2022/08/14 03:58:49;;;;;;;9.50;5.68;;;;;;;21.29;67.36;101132.47;4965202;28;20102;-63
2022/08/14 04:01:18;;;;;;;7.80;5.88;;;;;;;21.28;67.58;101128.06;4965183;28;20069;-62
2022/08/14 04:03:44;;;;;;;;;;;;;;;21.29;67.57;101131.59;4965768;28;20082;-63
2022/08/14 04:06:10;;;;;;;8.15;6.68;;;;;;;21.27;68.08;101126.34;4966355;28;19961;-61
2022/08/14 04:08:39;;;;;;;7.57;6.72;;;;;;;21.18;68.18;101125.22;4965574;28;20102;-61
2022/08/14 04:11:06;;;;;;;8.00;6.55;;;;;;;21.05;68.92;101127.97;4972915;28;20492;-61
2022/08/14 04:13:34;;;;;;;7.50;6.80;;;;;;;20.99;69.76;101130.22;4985219;28;20577;-62
2022/08/14 04:16:00;;;;;;;7.70;6.93;;;;;;;20.93;69.56;101126.19;4983196;28;20036;-62
2022/08/14 04:18:25;;;;;;;8.25;7.03;;;;;;;20.89;69.24;101120.16;4983922;28;20436;-63
2022/08/14 04:20:50;;;;;;;7.38;6.68;;;;;;;20.85;69.33;101118.69;4985376;28;20076;-61
2022/08/14 04:23:16;;;;;;;8.18;6.35;;;;;;;20.82;69.66;101117.09;4985074;28;20056;-62
2022/08/14 04:25:42;;;;;;;9.02;6.70;;;;;;;20.82;69.92;101121.59;4985123;28;20022;-63
2022/08/14 04:28:10;;;;;;;8.85;7.15;;;;;;;20.79;70.00;101113.78;4984794;28;20137;-62
2022/08/14 04:30:38;;;;;;;7.57;6.78;;;;;;;20.77;70.49;101113.06;4982854;28;20048;-62
2022/08/14 04:33:04;;;;;;;8.30;7.38;;;;;;;20.75;70.87;101109.63;4983366;28;20041;-62
2022/08/14 04:35:29;;;;;;;7.90;7.10;;;;;;;20.73;71.11;101109.72;4983343;28;20743;-62
2022/08/14 04:43:35;;;;;;;9.38;7.55;;;;;;;20.84;70.84;101100.91;4974987;28;20108;-61
2022/08/14 04:46:05;;;;;;;9.07;6.70;;;;;;;20.86;70.75;101096.28;4978911;28;20022;-63
2022/08/14 04:48:30;;;;;;;8.60;7.30;;;;;;;20.85;70.75;101091.91;4984689;28;20066;-62
2022/08/14 04:50:56;;;;;;;8.82;7.90;;;;;;;20.86;70.84;101090.94;4983600;28;20603;-62
2022/08/14 04:53:24;;;;;;;8.85;7.45;;;;;;;20.87;70.90;101089.97;4983830;28;20033;-65
2022/08/14 04:55:50;;;;;;;10.47;7.57;;;;;;;20.92;71.42;101095.88;4985383;28;20130;-65
2022/08/14 04:58:18;;;;;;;9.18;7.57;;;;;;;21.03;70.51;101088.84;4982761;28;20906;-65
2022/08/14 05:00:44;;;;;;;11.80;6.93;;;;;;;21.12;70.73;101090.84;4973701;28;20543;-65
2022/08/14 05:03:10;;;;;;;8.13;7.32;;;;;;;21.21;70.34;101092.84;4983886;28;20042;-65
2022/08/14 05:05:35;;;;;;;11.40;7.68;;;;;;;21.28;69.58;101090.53;4982001;28;20030;-65
2022/08/14 05:08:13;;;;;;;10.00;7.82;;;;;;;21.35;69.27;101090.94;4984581;28;20365;-63
2022/08/14 05:10:49;;;;;;;7.25;6.50;;;;;;;21.38;69.39;101089.84;4983882;28;20110;-65
2022/08/14 05:13:15;;;;;;;11.85;7.00;;;;;;;21.43;69.72;101088.53;4980832;28;20485;-65
2022/08/14 05:15:40;;;;;;;13.13;7.40;;;;;;;21.48;69.41;101080.13;4978363;28;20022;-65
2022/08/14 05:18:13;;;;;;;11.45;7.47;;;;;;;21.56;68.83;101084.91;4977920;28;20019;-65
2022/08/14 05:20:39;;;;;;;10.27;7.55;;;;;;;21.63;68.83;101091.50;4976749;28;20054;-64
2022/08/14 05:23:06;;;;;;;9.63;7.30;;;;;;;21.67;69.19;101092.13;4981170;28;20042;-65
2022/08/14 05:25:32;;;;;;;8.63;7.38;;;;;;;21.73;68.86;101096.16;4987836;28;20495;-64
2022/08/14 05:28:05;;;;;;;10.82;7.40;;;;;;;21.71;68.99;101083.69;4987248;28;20030;-64
2022/08/14 05:30:31;;;;;;;10.02;7.47;;;;;;;21.81;68.56;101083.88;4986645;28;20133;-64
2022/08/14 05:32:56;;;;;;;7.53;6.70;;;;;;;21.91;68.46;101084.00;4987731;28;20254;-65
2022/08/14 05:35:21;;;;;;;8.32;7.22;;;;;;;21.96;68.39;101080.97;4988949;28;20377;-65
2022/08/14 05:37:48;;;;;;;10.40;6.95;;;;;;;21.99;68.34;101075.38;4987961;28;20025;-64
2022/08/14 05:40:13;;;;;;;7.28;6.53;;;;;;;21.99;68.16;101074.50;4978706;28;20054;-64
2022/08/14 05:42:39;;;;;;;9.80;7.97;;;;;;;22.10;68.00;101071.84;4979799;28;20129;-63
2022/08/14 05:45:05;;;;;;;9.77;7.97;;;;;;;22.13;68.21;101070.72;4985372;28;20081;-65
2022/08/14 05:47:31;;;;;;;9.18;7.80;;;;;;;22.18;68.03;101079.25;4977239;28;20032;-65
2022/08/14 05:49:57;;;;;;;11.35;7.00;;;;;;;22.27;67.88;101078.53;4975674;28;20377;-65
2022/08/14 05:52:22;;;;;;;13.30;7.85;;;;;;;22.27;67.75;101083.06;4985818;28;20026;-64
2022/08/14 05:54:48;;;;;;;11.68;6.90;;;;;;;22.37;67.45;101084.03;4986764;28;20101;-64
2022/08/14 05:57:13;;;;;;;9.05;6.90;;;;;;;22.34;67.43;101076.22;4987031;28;20034;-65
2022/08/14 05:59:40;;;;;;;8.88;7.97;;;;;;;22.43;67.39;101074.63;4986347;28;20030;-65
2022/08/14 06:02:07;;;;;;;8.48;7.43;;;;;;;22.49;67.42;101075.94;4985399;28;20023;-65
2022/08/14 06:04:32;;;;;;;10.48;7.18;;;;;;;22.53;67.58;101074.72;4973163;28;20038;-65
2022/08/14 06:06:57;;;;;;;8.85;7.95;;;;;;;22.62;66.64;101074.00;4980774;28;20226;-65
2022/08/14 06:09:22;;;;;;;7.75;6.60;;;;;;;22.62;66.94;101076.69;4987865;28;20018;-65
2022/08/14 06:11:48;;;;;;;10.25;7.53;;;;;;;22.72;66.65;101074.94;4985546;28;20386;-65
2022/08/14 06:14:13;;;;;;;7.88;7.07;;;;;;;22.79;66.23;101074.44;4985538;28;20034;-64
2022/08/14 06:16:38;;;;;;;8.70;7.10;;;;;;;22.90;65.83;101069.03;4986396;28;20466;-64
2022/08/14 06:19:05;;;;;;;10.95;7.22;;;;;;;22.94;65.99;101065.09;4982988;28;20030;-64
2022/08/14 06:21:30;;;;;;;12.65;7.95;;;;;;;23.04;65.23;101072.38;4975385;28;20062;-65
2022/08/14 06:23:55;;;;;;;13.40;8.30;;;;;;;23.12;64.90;101067.25;4975512;28;20485;-64
2022/08/14 06:26:21;;;;;;;12.05;8.00;;;;;;;23.13;64.47;101074.31;4971669;28;20030;-65
2022/08/14 06:28:46;;;;;;;9.95;6.90;;;;;;;23.34;63.99;101070.78;4977232;28;20483;-65
2022/08/14 06:31:11;;;;;;;11.75;7.88;;;;;;;23.40;63.51;101073.00;4986936;28;20382;-66
2022/08/14 06:33:37;;;;;;;10.43;6.40;;;;;;;23.52;63.35;101063.03;4985304;28;20109;-66
2022/08/14 06:36:02;;;;;;;9.73;7.18;;;;;;;23.60;62.91;101065.06;4986361;28;20053;-63
2022/08/14 06:38:28;;;;;;;10.90;6.90;;;;;;;23.66;62.08;101059.13;4986633;28;20117;-64
2022/08/14 06:40:53;;;;;;;11.02;7.40;;;;;;;23.74;61.22;101055.78;4987116;28;20018;-65
2022/08/14 06:43:19;;;;;;;8.90;7.50;;;;;;;23.79;61.44;101064.31;4986447;28;20022;-64
2022/08/14 06:45:46;;;;;;;10.10;6.15;;;;;;;23.83;61.38;101068.44;4985553;28;20027;-64
2022/08/14 06:48:16;;;;;;;16.30;7.72;;;;;;;23.89;61.40;101075.09;4977604;28;20023;-64
2022/08/14 06:50:42;;;;;;;10.95;6.55;;;;;;;24.16;60.49;101065.63;4978164;28;20052;-64
2022/08/14 06:53:08;;;;;;;10.68;6.78;;;;;;;24.19;60.61;101049.19;4986097;28;20022;-64
2022/08/14 06:55:33;;;;;;;12.77;7.22;;;;;;;24.33;59.71;101049.81;4974057;28;20108;-65
2022/08/14 06:57:59;;;;;;;7.40;6.28;;;;;;;24.37;59.43;101056.59;4971967;28;20023;-64
2022/08/14 07:00:26;;;;;;;9.55;7.05;;;;;;;24.38;59.60;101055.59;4971209;28;20049;-65
2022/08/14 07:05:45;;;;;;;9.63;7.07;;;;;;;24.43;59.59;101044.44;4975195;28;20042;-67
2022/08/14 07:08:19;;;;;;;11.35;7.60;;;;;;;24.50;59.16;101044.75;4975501;28;20081;-66
2022/08/14 07:10:46;;;;;;;15.07;7.28;;;;;;;24.56;59.10;101047.72;4978868;28;20077;-64
2022/08/14 07:13:12;;;;;;;10.57;7.72;;;;;;;24.48;59.30;101042.19;4984347;28;20033;-65
2022/08/14 07:15:39;;;;;;;8.50;7.65;;;;;;;24.58;58.72;101047.56;4983716;28;20101;-65
2022/08/14 07:18:06;;;;;;;10.02;7.35;;;;;;;24.65;58.94;101042.50;4984905;28;20053;-65
2022/08/14 07:20:32;;;;;;;10.98;6.57;;;;;;;24.82;58.25;101043.63;4984336;28;20134;-64
2022/08/14 07:23:01;;;;;;;10.68;6.97;;;;;;;24.83;58.92;101050.75;4984778;28;20018;-64
2022/08/14 07:25:27;;;;;;;8.55;6.00;;;;;;;24.95;58.46;101044.22;4984739;28;20382;-63
2022/08/14 07:27:53;;;;;;;7.57;6.30;;;;;;;25.13;57.63;101038.13;4983484;28;20022;-64
2022/08/14 07:30:19;;;;;;;10.50;7.57;;;;;;;25.20;57.60;101044.63;4984510;28;20022;-64
2022/08/14 07:32:44;;;;;;;10.85;7.32;;;;;;;25.17;57.96;101038.69;4983984;28;20029;-64
2022/08/14 07:35:09;;;;;;;8.52;7.25;;;;;;;25.28;57.85;101049.31;4984024;28;20026;-64
2022/08/14 07:37:35;;;;;;;9.57;6.65;;;;;;;25.28;58.09;101041.22;4984455;28;20557;-65
2022/08/14 07:40:01;;;;;;;9.43;6.50;;;;;;;25.32;57.74;101044.50;4983848;28;20073;-63
2022/08/14 07:42:27;;;;;;;14.23;7.20;;;;;;;25.45;57.31;101041.47;4984469;28;20010;-64
2022/08/14 07:44:53;;;;;;;8.50;7.13;;;;;;;25.41;57.44;101038.22;4983872;28;20042;-64
2022/08/14 07:47:18;;;;;;;7.28;6.57;;;;;;;25.53;56.86;101046.16;4984524;28;20404;-66
2022/08/14 07:49:58;;;;;;;7.60;5.63;;;;;;;25.63;56.60;101046.13;4983653;28;20310;-63
2022/08/14 07:52:23;;;;;;;8.25;6.75;;;;;;;25.69;55.58;101041.03;4982148;28;20120;-65
2022/08/14 07:54:49;;;;;;;7.05;5.68;;;;;;;25.98;54.73;101050.84;4983844;28;20153;-63
2022/08/14 07:57:16;;;;;;;11.68;6.38;;;;;;;25.88;54.88;101047.31;4980975;28;20077;-64
2022/08/14 07:59:41;;;;;;;7.78;5.55;;;;;;;26.05;54.60;101039.44;4980775;28;20049;-64
2022/08/14 08:02:09;;;;;;;7.05;6.35;;;;;;;26.05;54.23;101029.50;4983631;28;20543;-64
2022/08/14 08:04:36;;;;;;;7.38;6.20;;;;;;;26.12;53.91;101032.44;4983906;28;20101;-64
2022/08/14 08:07:02;;;;;;;12.50;6.45;;;;;;;26.13;53.81;101023.38;4984176;28;20493;-64
2022/08/14 08:09:28;;;;;;;11.57;7.35;;;;;;;26.11;54.79;101028.06;4983202;28;20026;-64
2022/08/14 08:11:54;;;;;;;8.65;6.55;;;;;;;26.27;53.63;101031.97;4982747;28;20026;-64
2022/08/14 08:14:19;;;;;;;9.55;6.60;;;;;;;26.34;53.59;101028.50;4982053;28;20057;-64
2022/08/14 08:16:46;;;;;;;12.55;6.57;;;;;;;26.35;54.02;101022.13;4983723;28;20362;-64
2022/08/14 08:19:11;;;;;;;7.60;6.32;;;;;;;26.45;53.59;101024.75;4983528;28;20014;-65
2022/08/14 08:21:38;;;;;;;6.15;5.22;;;;;;;26.54;54.08;101014.00;4983838;28;20138;-64
2022/08/14 08:24:03;;;;;;;9.57;5.97;;;;;;;26.70;53.68;101019.56;4983866;28;20027;-66
2022/08/14 08:26:32;;;;;;;8.05;6.68;;;;;;;26.70;54.25;101024.16;4983479;28;20022;-64
2022/08/14 08:28:58;;;;;;;7.05;6.30;;;;;;;26.72;54.31;101020.28;4982476;28;20027;-65
2022/08/14 08:31:24;;;;;;;7.30;6.60;;;;;;;26.64;54.37;101022.06;4983619;28;20034;-65
2022/08/14 08:33:52;;;;;;;10.98;5.80;;;;;;;26.83;53.40;101010.25;4983362;28;20409;-64
2022/08/14 08:36:17;;;;;;;7.15;6.43;;;;;;;26.83;54.12;101010.25;4982188;28;20023;-64
2022/08/14 08:38:46;;;;;;;7.40;5.40;;;;;;;26.92;54.10;101009.31;4983518;28;20061;-65
2022/08/14 08:41:11;;;;;;;;;;;;;;;27.10;53.50;101011.16;4983855;28;20098;-64
2022/08/14 08:43:37;;;;;;;9.90;5.95;;;;;;;27.20;53.22;101005.66;4983078;28;20372;-64
2022/08/14 08:46:03;;;;;;;9.07;5.68;;;;;;;27.31;52.45;101005.41;4983767;28;20019;-64
2022/08/14 08:48:30;;;;;;;9.13;6.50;;;;;;;27.31;53.05;101002.69;4987086;28;20022;-63
2022/08/14 08:50:57;;;;;;;10.30;6.45;;;;;;;27.37;52.35;100999.38;4987521;28;20034;-62
2022/08/14 08:53:30;;;;;;;7.40;6.25;;;;;;;27.39;52.30;100993.75;4988262;28;20121;-64
2022/08/14 08:55:55;;;;;;;5.80;5.20;;;;;;;27.56;51.85;100993.84;4987537;28;20022;-63
2022/08/14 08:58:21;;;;;;;12.95;6.50;;;;;;;27.57;52.16;100992.88;4987039;28;20077;-63
2022/08/14 09:00:52;;;;;;;13.55;6.65;;;;;;;27.71;52.25;101000.41;4987423;28;20034;-63
2022/08/14 09:03:23;;;;;;;7.13;6.43;;;;;;;27.78;52.32;100997.06;4987265;28;20575;-63
2022/08/14 09:05:48;;;;;;;6.25;5.57;;;;;;;27.78;52.46;100994.34;4987719;28;20049;-62
2022/08/14 09:08:14;;;;;;;5.97;5.38;;;;;;;27.98;51.43;100990.38;4987487;28;20477;-64
2022/08/14 09:10:39;;;;;;;10.05;6.55;;;;;;;27.85;51.84;100995.41;4987470;28;20188;-64
2022/08/14 09:13:05;;;;;;;16.20;6.47;;;;;;;27.74;52.71;100991.97;4987376;28;20034;-63
2022/08/14 09:15:30;;;;;;;8.23;6.00;;;;;;;27.88;52.48;100989.66;4985907;28;20042;-66
2022/08/14 09:17:56;;;;;;;6.85;5.10;;;;;;;28.11;52.00;100987.19;4986307;28;20393;-64
2022/08/14 09:20:22;;;;;;;8.38;5.32;;;;;;;28.28;51.66;100989.94;4976257;28;20491;-64
2022/08/14 09:22:48;;;;;;;8.43;6.55;;;;;;;27.93;52.28;100984.59;4950293;28;20031;-63
2022/08/14 09:25:15;;;;;;;8.93;6.22;;;;;;;27.95;51.46;100981.72;4967736;28;20200;-64
2022/08/14 09:27:40;;;;;;;15.68;6.25;;;;;;;28.23;50.72;100986.91;4968423;28;20030;-65
2022/08/14 09:30:08;;;;;;;10.07;6.30;;;;;;;28.32;50.97;100987.78;4967325;28;20026;-63
2022/08/14 09:33:02;;;;;;;9.55;6.40;;;;;;;28.25;51.30;100991.13;4967307;28;20038;-64
2022/08/14 09:35:36;;;;;;;11.27;7.13;;;;;;;28.29;51.71;100982.66;4951413;28;20034;-63
2022/08/14 09:38:01;;;;;;;11.70;6.55;;;;;;;28.36;50.13;100972.88;4987159;28;20089;-63
2022/08/14 09:40:37;;;;;;;7.50;6.37;;;;;;;28.00;50.06;100973.97;4985163;28;20485;-64
2022/08/14 09:43:13;;;;;;;17.17;6.20;;;;;;;28.06;50.16;100967.88;4977321;28;20285;-63
2022/08/14 09:45:48;;;;;;;6.03;5.30;;;;;;;28.40;50.88;100966.13;4975809;28;20093;-63
2022/08/14 09:48:18;;;;;;;8.55;5.25;;;;;;;28.26;49.49;100964.88;4978706;28;20076;-63
2022/08/14 09:50:47;;;;;;;9.18;5.97;;;;;;;28.50;48.72;100955.97;4982243;28;20026;-65
2022/08/14 09:53:15;;;;;;;9.55;4.90;;;;;;;28.73;48.44;100954.44;4987206;28;20066;-64
2022/08/14 09:55:41;;;;;;;4.82;4.43;;;;;;;29.01;48.22;100946.81;4985731;28;20026;-64
2022/08/14 09:58:17;;;;;;;7.43;4.53;;;;;;;29.20;46.89;100946.63;4985583;28;20812;-63
2022/08/14 10:00:44;;;;;;;8.73;5.10;;;;;;;29.21;46.58;100943.72;4985862;28;20451;-63
2022/08/14 10:03:09;;;;;;;8.13;4.68;;;;;;;29.48;46.06;100943.47;4981155;28;20086;-64
2022/08/14 10:05:35;;;;;;;8.95;4.82;;;;;;;29.44;46.78;100936.72;4985638;28;20054;-65
2022/08/14 10:08:02;;;;;;;5.57;5.03;;;;;;;29.55;46.10;100936.34;4985517;28;20026;-63
2022/08/14 10:10:31;;;;;;;6.97;4.95;;;;;;;29.55;46.47;100935.50;4985999;28;20541;-62
2022/08/14 10:12:56;;;;;;;12.30;4.88;;;;;;;29.59;45.98;100942.28;4986868;28;20121;-65
2022/08/14 10:15:25;;;;;;;10.15;4.57;;;;;;;29.74;45.98;100932.34;4984812;28;20158;-63
2022/08/14 10:18:15;;;;;;;6.95;4.88;;;;;;;29.84;46.97;100928.56;4986417;28;20033;-64
2022/08/14 10:20:54;;;;;;;8.23;4.80;;;;;;;30.02;45.39;100925.59;4977117;28;20022;-62
2022/08/14 10:23:21;;;;;;;5.53;4.90;;;;;;;30.12;44.58;100918.06;4974665;28;20113;-63
2022/08/14 10:25:52;;;;;;;6.63;4.95;;;;;;;30.15;44.61;100925.00;4970907;28;20026;-63
2022/08/14 10:28:19;;;;;;;6.72;4.47;;;;;;;30.07;43.96;100919.63;4975469;28;20481;-64
2022/08/14 10:30:52;;;;;;;4.78;4.20;;;;;;;30.35;44.12;100924.53;4976863;28;20097;-63
2022/08/14 10:33:29;;;;;;;6.95;3.97;;;;;;;30.49;44.49;100918.31;4975241;28;20142;-65
2022/08/14 10:35:56;;;;;;;10.55;4.57;;;;;;;30.73;43.18;100921.84;4977502;28;20632;-64
2022/08/14 10:38:30;;;;;;;14.02;4.50;;;;;;;30.87;42.66;100919.34;4986328;28;20026;-65
2022/08/14 10:40:56;;;;;;;11.90;4.45;;;;;;;30.94;42.59;100914.84;4985934;28;20029;-63
2022/08/14 10:43:24;;;;;;;8.38;4.40;;;;;;;31.00;43.68;100913.28;4984774;28;20031;-61
2022/08/14 10:45:54;;;;;;;5.25;4.53;;;;;;;30.82;43.32;100905.50;4987173;28;20053;-64
2022/08/14 10:48:20;;;;;;;5.22;4.60;;;;;;;30.85;43.42;100908.66;4986420;28;20527;-66
2022/08/14 10:50:50;;;;;;;7.63;4.65;;;;;;;30.99;42.37;100896.13;4986657;28;20537;-61
2022/08/14 10:53:26;;;;;;;4.40;4.00;;;;;;;31.17;43.56;100900.34;4984762;28;20045;-63
2022/08/14 10:55:57;;;;;;;6.57;4.20;;;;;;;31.30;41.53;100902.38;4986398;28;20155;-63
2022/08/14 10:58:27;;;;;;;4.88;4.47;;;;;;;31.51;40.85;100900.78;4986131;28;20023;-62
2022/08/14 11:00:57;;;;;;;6.35;3.65;;;;;;;31.75;41.30;100896.91;4986363;28;20438;-62
2022/08/14 11:03:24;;;;;;;5.78;3.97;;;;;;;31.81;39.85;100891.75;4980179;28;20046;-63
2022/08/14 11:05:52;;;;;;;5.85;3.75;;;;;;;31.66;40.02;100895.31;4985005;28;20052;-62
2022/08/14 11:08:29;;;;;;;5.30;4.20;;;;;;;31.81;40.13;100883.56;4979050;28;20030;-63
2022/08/14 11:10:57;;;;;;;6.13;3.90;;;;;;;31.73;39.65;100888.09;4985267;28;20601;-62
2022/08/14 11:13:26;;;;;;;7.28;3.63;;;;;;;31.91;38.72;100881.38;4985286;28;20030;-62
2022/08/14 11:15:54;;;;;;;4.65;4.20;;;;;;;32.18;38.41;100881.66;4986200;28;20027;-62
2022/08/14 11:18:20;;;;;;;7.55;3.50;;;;;;;32.40;35.86;100878.91;4986289;28;20077;-63
2022/08/14 11:20:53;;;;;;;4.38;3.20;;;;;;;32.31;35.81;100885.53;4985858;28;20417;-63
2022/08/14 11:23:19;;;;;;;6.18;3.15;;;;;;;32.47;36.63;100890.72;4985520;28;20030;-63
2022/08/14 11:25:45;;;;;;;5.10;3.17;;;;;;;32.62;35.11;100881.63;4985096;28;20030;-64
2022/08/14 11:28:14;;;;;;;3.97;3.10;;;;;;;33.03;33.44;100872.66;4983293;28;20710;-63
2022/08/14 11:30:41;;;;;;;15.07;3.20;;;;;;;33.00;33.19;100883.97;4984497;28;20026;-63
2022/08/14 11:33:06;;;;;;;4.88;3.25;;;;;;;33.17;33.59;100891.88;4985337;28;20037;-63
2022/08/14 11:35:32;;;;;;;5.22;2.90;;;;;;;33.18;33.48;100884.50;4984988;28;20023;-63